createdAt,value
2022-08-12T00:00:09.482Z,42.30
2022-08-12T00:02:55.205Z,42.50
2022-08-12T00:05:57.087Z,42.40
2022-08-12T00:08:47.608Z,42.50
2022-08-12T00:11:33.347Z,42.60
2022-08-12T00:14:20.651Z,42.50
2022-08-12T00:17:06.985Z,42.60
2022-08-12T00:19:52.341Z,42.50
2022-08-12T00:22:39.477Z,42.50
2022-08-12T00:26:21.718Z,42.60
2022-08-12T00:28:31.627Z,43.00
2022-08-12T00:31:18.834Z,43.60
2022-08-12T00:34:05.287Z,43.90
2022-08-12T00:36:50.764Z,44.00
2022-08-12T00:39:36.327Z,44.30
2022-08-12T00:42:12.772Z,44.60
2022-08-12T00:44:43.376Z,44.80
2022-08-12T00:47:24.648Z,44.90
2022-08-12T00:49:54.826Z,45.20
2022-08-12T00:52:23.363Z,45.40
2022-08-12T00:54:53.615Z,45.50
2022-08-12T00:57:24.187Z,45.50
2022-08-12T00:59:54.893Z,45.70
2022-08-12T01:02:26.590Z,45.90
2022-08-12T01:05:14.676Z,46.00
2022-08-12T01:08:01.035Z,46.20
2022-08-12T01:10:49.857Z,46.50
2022-08-12T01:13:20.394Z,46.60
2022-08-12T01:15:51.172Z,47.20
2022-08-12T01:18:21.414Z,47.40
2022-08-12T01:20:55.773Z,47.40
2022-08-12T01:23:50.007Z,47.50
2022-08-12T01:26:21.296Z,47.70
2022-08-12T01:28:51.593Z,47.90
2022-08-12T01:31:21.461Z,47.70
2022-08-12T01:33:59.623Z,47.70
2022-08-12T01:36:29.142Z,48.00
2022-08-12T01:38:59.996Z,48.10
2022-08-12T01:41:31.624Z,48.40
2022-08-12T01:44:02.253Z,48.70
2022-08-12T01:46:43.225Z,49.10
2022-08-12T01:49:29.004Z,49.30
2022-08-12T01:52:21.351Z,49.10
2022-08-12T01:54:52.720Z,49.40
2022-08-12T01:57:58.298Z,49.50
2022-08-12T02:00:19.357Z,50.30
2022-08-12T02:02:54.504Z,49.70
2022-08-12T02:05:50.150Z,50.00
2022-08-12T02:08:52.250Z,50.30
2022-08-12T02:11:25.493Z,50.60
2022-08-12T02:14:18.425Z,50.90
2022-08-12T02:17:05.144Z,51.00
2022-08-12T02:19:49.389Z,51.30
2022-08-12T02:22:28.706Z,51.30
2022-08-12T02:25:02.354Z,51.70
2022-08-12T02:27:36.124Z,51.80
2022-08-12T02:30:08.581Z,52.10
2022-08-12T02:32:40.172Z,52.10
2022-08-12T02:35:10.813Z,52.40
2022-08-12T02:37:40.931Z,52.60
2022-08-12T02:40:12.247Z,52.80
2022-08-12T02:42:47.182Z,52.90
2022-08-12T02:45:21.399Z,53.00
2022-08-12T02:47:59.580Z,53.40
2022-08-12T02:50:32.044Z,53.60
2022-08-12T02:53:01.333Z,53.90
2022-08-12T02:55:34.498Z,54.40
2022-08-12T02:58:12.484Z,54.40
2022-08-12T03:00:45.330Z,54.50
2022-08-12T03:03:14.869Z,54.50
2022-08-12T03:05:50.846Z,54.50
2022-08-12T03:08:32.651Z,54.70
2022-08-12T03:11:06.158Z,55.10
2022-08-12T03:13:46.495Z,55.40
2022-08-12T03:16:15.930Z,55.60
2022-08-12T03:18:45.955Z,55.80
2022-08-12T03:21:17.362Z,56.10
2022-08-12T03:24:09.166Z,56.50
2022-08-12T03:26:38.271Z,56.90
2022-08-12T03:29:08.020Z,57.20
2022-08-12T03:31:37.145Z,57.50
2022-08-12T03:34:07.945Z,57.70
2022-08-12T03:36:37.513Z,58.20
2022-08-12T03:39:36.028Z,58.20
2022-08-12T03:42:28.411Z,58.50
2022-08-12T03:45:27.804Z,59.40
2022-08-12T03:48:19.304Z,59.90
2022-08-12T03:51:06.354Z,60.60
2022-08-12T03:53:52.943Z,61.30
2022-08-12T03:56:38.842Z,62.20
2022-08-12T03:59:26.281Z,62.60
2022-08-12T04:01:57.361Z,63.10
2022-08-12T04:04:29.431Z,64.10
2022-08-12T04:06:57.895Z,64.30
2022-08-12T04:09:26.233Z,64.90
2022-08-12T04:12:11.911Z,65.40
2022-08-12T04:14:40.495Z,65.60
2022-08-12T04:17:08.726Z,65.90
2022-08-12T04:19:38.577Z,66.50
2022-08-12T04:22:06.345Z,66.60
2022-08-12T04:24:36.220Z,67.00
2022-08-12T04:27:06.934Z,67.20
2022-08-12T04:30:17.097Z,67.50
2022-08-12T04:32:23.081Z,67.70
2022-08-12T04:34:52.837Z,68.30
2022-08-12T04:37:20.804Z,68.60
2022-08-12T04:39:49.770Z,68.90
2022-08-12T04:42:19.618Z,69.20
2022-08-12T04:44:48.286Z,69.40
2022-08-12T04:47:17.735Z,70.30
2022-08-12T04:49:48.013Z,71.30
2022-08-12T04:52:17.754Z,71.40
2022-08-12T04:54:46.156Z,70.40
2022-08-12T04:57:14.035Z,69.10
2022-08-12T04:59:46.978Z,67.50
2022-08-12T05:02:16.963Z,65.60
2022-08-12T05:04:49.654Z,64.00
2022-08-12T05:07:18.811Z,61.10
2022-08-12T05:09:59.405Z,58.80
2022-08-12T05:12:35.765Z,57.10
2022-08-12T05:15:04.171Z,54.80
2022-08-12T05:17:48.064Z,52.90
2022-08-12T05:20:16.545Z,51.00
2022-08-12T05:22:45.789Z,49.90
2022-08-12T05:25:15.759Z,47.60
2022-08-12T05:27:58.092Z,46.10
2022-08-12T05:30:27.632Z,44.70
2022-08-12T05:32:59.047Z,43.30
2022-08-12T05:35:28.309Z,42.10
2022-08-12T05:38:11.325Z,41.10
2022-08-12T05:40:39.361Z,40.00
2022-08-12T05:43:07.771Z,39.10
2022-08-12T05:45:35.598Z,37.80
2022-08-12T05:48:03.799Z,36.70
2022-08-12T05:50:31.556Z,35.90
2022-08-12T05:53:00.775Z,35.00
2022-08-12T05:55:31.647Z,34.10
2022-08-12T05:57:59.699Z,33.40
2022-08-12T06:00:31.849Z,31.90
2022-08-12T06:03:01.788Z,31.40
2022-08-12T06:05:30.142Z,31.10
2022-08-12T06:08:01.716Z,30.50
2022-08-12T06:10:33.148Z,30.00
2022-08-12T06:13:02.120Z,29.50
2022-08-12T06:15:30.332Z,29.20
2022-08-12T06:18:05.348Z,28.70
2022-08-12T06:20:40.665Z,28.20
2022-08-12T06:23:11.720Z,27.80
2022-08-12T06:25:42.018Z,27.30
2022-08-12T06:28:17.375Z,27.00
2022-08-12T06:31:08.258Z,26.80
2022-08-12T06:34:00.738Z,26.30
2022-08-12T06:36:30.057Z,25.60
2022-08-12T06:39:01.382Z,25.10
2022-08-12T06:42:02.426Z,24.50
2022-08-12T06:44:36.043Z,24.20
2022-08-12T06:47:03.948Z,23.70
2022-08-12T06:49:36.451Z,23.50
2022-08-12T06:52:07.327Z,23.10
2022-08-12T07:01:12.621Z,22.10
2022-08-12T07:03:40.672Z,21.20
2022-08-12T07:06:13.624Z,20.70
2022-08-12T07:08:43.871Z,20.90
2022-08-12T07:11:15.520Z,20.90
2022-08-12T07:14:11.729Z,21.20
2022-08-12T07:16:48.826Z,20.30
2022-08-12T07:19:17.280Z,20.50
2022-08-12T07:21:59.630Z,20.20
2022-08-12T07:24:30.607Z,20.30
2022-08-12T07:26:58.575Z,20.30
2022-08-12T07:30:02.526Z,20.40
2022-08-12T07:32:18.301Z,20.70
2022-08-12T07:34:47.355Z,20.40
2022-08-12T07:37:15.818Z,20.40
2022-08-12T07:39:50.670Z,20.40
2022-08-12T07:42:27.963Z,20.50
2022-08-12T07:44:56.274Z,20.80
2022-08-12T07:47:27.428Z,20.70
2022-08-12T07:50:03.332Z,20.80
2022-08-12T07:52:34.584Z,20.30
2022-08-12T07:55:02.840Z,20.20
2022-08-12T07:57:32.285Z,20.30
2022-08-12T08:00:04.752Z,20.40
2022-08-12T08:02:36.123Z,20.30
2022-08-12T08:05:05.329Z,19.80
2022-08-12T08:07:33.253Z,20.00
2022-08-12T08:10:03.817Z,20.10
2022-08-12T08:12:49.614Z,19.90
2022-08-12T08:15:17.925Z,20.10
2022-08-12T08:17:59.453Z,20.10
2022-08-12T08:20:29.354Z,19.70
2022-08-12T08:22:58.489Z,19.20
2022-08-12T08:25:35.769Z,19.40
2022-08-12T08:28:06.927Z,19.40
2022-08-12T08:30:38.166Z,19.10
2022-08-12T08:33:24.623Z,19.10
2022-08-12T08:35:58.840Z,19.20
2022-08-12T08:38:32.374Z,19.50
2022-08-12T08:42:16.790Z,19.40
2022-08-12T08:44:10.544Z,19.50
2022-08-12T08:46:38.476Z,19.10
2022-08-12T08:49:08.188Z,19.10
2022-08-12T08:51:36.403Z,19.30
2022-08-12T08:54:04.352Z,19.00
2022-08-12T08:56:32.216Z,19.30
2022-08-12T08:59:00.272Z,19.00
2022-08-12T09:01:37.730Z,18.90
2022-08-12T09:05:07.583Z,18.60
2022-08-12T09:06:58.470Z,18.80
2022-08-12T09:09:34.045Z,18.70
2022-08-12T09:15:19.035Z,18.30
2022-08-12T09:17:53.079Z,18.40
2022-08-12T09:20:29.318Z,18.30
2022-08-12T09:22:58.963Z,18.10
2022-08-12T09:25:33.606Z,18.00
2022-08-12T09:28:05.011Z,17.90
2022-08-12T09:30:50.803Z,17.10
2022-08-12T09:34:26.143Z,17.20
2022-08-12T09:36:08.144Z,17.40
2022-08-12T09:38:40.704Z,17.60
2022-08-12T09:42:35.204Z,17.90
2022-08-12T09:44:38.958Z,17.40
2022-08-12T09:47:10.788Z,17.30
2022-08-12T09:49:42.575Z,17.40
2022-08-12T09:52:15.594Z,17.40
2022-08-12T09:54:43.426Z,16.80
2022-08-12T09:58:44.598Z,16.80
2022-08-12T10:00:15.330Z,16.60
2022-08-12T10:03:04.554Z,16.50
2022-08-12T10:06:20.299Z,16.90
2022-08-12T10:08:30.361Z,16.70
2022-08-12T10:11:20.426Z,16.60
2022-08-12T10:13:50.100Z,16.70
2022-08-12T10:16:22.557Z,16.60
2022-08-12T10:18:53.516Z,16.20
2022-08-12T10:21:23.784Z,16.00
2022-08-12T10:23:56.620Z,15.70
2022-08-12T10:26:44.692Z,15.40
2022-08-12T10:30:03.146Z,15.30
2022-08-12T10:32:52.689Z,15.40
2022-08-12T10:35:09.815Z,15.80
2022-08-12T10:38:38.491Z,15.20
2022-08-12T10:40:32.298Z,15.30
2022-08-12T10:43:18.874Z,15.10
2022-08-12T10:45:49.159Z,15.50
2022-08-12T10:48:33.704Z,15.70
2022-08-12T10:51:51.859Z,16.00
2022-08-12T10:53:52.912Z,16.50
2022-08-12T10:56:22.233Z,16.40
2022-08-12T10:58:51.954Z,17.10
2022-08-12T11:01:49.198Z,17.20
2022-08-12T11:04:19.558Z,17.60
2022-08-12T11:07:03.566Z,17.10
2022-08-12T11:10:00.625Z,18.30
2022-08-12T11:12:55.830Z,19.10
2022-08-12T11:15:33.107Z,19.90
2022-08-12T11:18:12.136Z,20.70
2022-08-12T11:20:47.872Z,21.50
2022-08-12T11:23:36.203Z,21.90
2022-08-12T11:26:06.322Z,22.20
2022-08-12T11:28:38.313Z,22.20
2022-08-12T11:31:11.852Z,22.60
2022-08-12T11:34:05.951Z,22.90
2022-08-12T11:36:29.639Z,23.30
2022-08-12T11:38:58.662Z,23.30
2022-08-12T11:41:33.308Z,23.20
2022-08-12T11:44:35.883Z,23.40
2022-08-12T11:46:53.972Z,23.50
2022-08-12T11:49:31.512Z,23.60
2022-08-12T11:52:02.143Z,23.60
2022-08-12T11:54:30.529Z,23.60
2022-08-12T11:57:00.188Z,23.70
2022-08-12T12:02:21.342Z,23.40
2022-08-12T12:04:52.143Z,23.10
2022-08-12T12:07:21.090Z,23.10
2022-08-12T12:09:52.259Z,23.00
2022-08-12T12:12:22.903Z,23.00
2022-08-12T12:14:54.562Z,23.10
2022-08-12T12:17:23.706Z,22.60
2022-08-12T12:19:52.903Z,22.30
2022-08-12T12:22:23.732Z,22.50
2022-08-12T12:24:58.863Z,22.60
2022-08-12T12:28:05.636Z,22.70
2022-08-12T12:30:36.403Z,22.80
2022-08-12T12:33:05.837Z,22.80
2022-08-12T12:36:06.278Z,22.90
2022-08-12T12:38:25.455Z,22.90
2022-08-12T12:40:53.748Z,22.80
2022-08-12T12:43:37.201Z,23.00
2022-08-12T12:46:11.924Z,23.20
2022-08-12T12:48:44.029Z,23.30
2022-08-12T12:51:48.373Z,23.30
2022-08-12T12:54:10.049Z,23.10
2022-08-12T12:56:41.824Z,23.00
2022-08-12T12:59:34.977Z,22.90
2022-08-12T13:02:07.561Z,22.90
2022-08-12T13:04:37.357Z,23.20
2022-08-12T13:07:06.581Z,22.60
2022-08-12T13:09:35.997Z,22.80
2022-08-12T13:12:06.558Z,23.00
2022-08-12T13:14:39.616Z,22.90
2022-08-12T13:17:11.174Z,22.70
2022-08-12T13:19:46.574Z,22.30
2022-08-12T13:22:18.569Z,22.30
2022-08-12T13:24:46.960Z,22.40
2022-08-12T13:27:22.779Z,22.30
2022-08-12T13:30:00.857Z,21.90
2022-08-12T13:32:33.109Z,21.80
2022-08-12T13:35:04.603Z,21.80
2022-08-12T13:37:54.848Z,21.80
2022-08-12T13:40:24.863Z,21.40
2022-08-12T13:42:57.887Z,21.40
2022-08-12T13:45:27.060Z,21.70
2022-08-12T13:48:00.098Z,21.90
2022-08-12T13:50:32.709Z,22.10
2022-08-12T13:53:16.685Z,22.30
2022-08-12T13:56:01.337Z,22.40
2022-08-12T13:58:34.942Z,22.40
2022-08-12T14:01:05.931Z,22.40
2022-08-12T14:03:50.992Z,22.50
2022-08-12T14:06:20.529Z,22.60
2022-08-12T14:08:49.653Z,22.30
2022-08-12T14:11:18.898Z,22.40
2022-08-12T14:14:03.630Z,22.20
2022-08-12T14:16:49.180Z,22.20
2022-08-12T14:19:24.417Z,22.10
2022-08-12T14:21:59.564Z,22.20
2022-08-12T14:24:31.385Z,22.20
2022-08-12T14:27:02.597Z,22.20
2022-08-12T14:29:59.055Z,22.20
2022-08-12T14:32:19.138Z,22.20
2022-08-12T14:34:51.222Z,22.30
2022-08-12T14:37:56.265Z,22.60
2022-08-12T14:40:09.320Z,22.20
2022-08-12T14:42:37.257Z,22.30
2022-08-12T14:45:07.855Z,22.40
2022-08-12T14:47:51.424Z,22.40
2022-08-12T14:50:41.061Z,22.40
2022-08-12T14:59:23.361Z,22.40
2022-08-12T15:01:49.637Z,22.60
2022-08-12T15:04:28.477Z,22.50
2022-08-12T15:06:58.464Z,22.50
2022-08-12T15:09:29.095Z,22.50
2022-08-12T15:12:04.112Z,22.40
2022-08-12T15:14:32.360Z,22.20
2022-08-12T15:17:06.871Z,22.40
2022-08-12T15:20:31.611Z,22.50
2022-08-12T15:22:39.365Z,22.40
2022-08-12T15:25:17.822Z,22.50
2022-08-12T15:28:05.528Z,22.50
2022-08-12T15:30:37.142Z,22.60
2022-08-12T15:33:12.767Z,22.60
2022-08-12T15:35:52.216Z,22.60
2022-08-12T15:38:25.081Z,22.50
2022-08-12T15:40:55.259Z,22.40
2022-08-12T15:43:51.084Z,22.60
2022-08-12T15:46:15.442Z,22.70
2022-08-12T15:48:46.669Z,22.80
2022-08-12T15:51:57.459Z,22.60
2022-08-12T15:54:34.955Z,22.70
2022-08-12T15:57:08.288Z,22.60
2022-08-12T16:00:00.444Z,22.50
2022-08-12T16:02:29.722Z,22.40
2022-08-12T16:04:58.558Z,22.50
2022-08-12T16:07:32.639Z,22.30
2022-08-12T16:10:08.625Z,23.00
2022-08-12T16:12:43.224Z,22.60
2022-08-12T16:15:13.445Z,23.00
2022-08-12T16:18:15.215Z,23.00
2022-08-12T16:20:34.226Z,23.00
2022-08-12T16:23:27.020Z,23.00
2022-08-12T16:26:06.198Z,23.10
2022-08-12T16:28:41.377Z,23.40
2022-08-12T16:31:18.613Z,23.50
2022-08-12T16:33:58.841Z,23.90
2022-08-12T16:36:29.396Z,24.10
2022-08-12T16:38:57.612Z,24.10
2022-08-12T16:41:37.990Z,23.90
2022-08-12T16:44:08.507Z,23.70
2022-08-12T16:46:37.575Z,23.70
2022-08-12T16:49:13.446Z,23.80
2022-08-12T16:51:47.023Z,23.70
2022-08-12T16:54:17.111Z,23.80
2022-08-12T16:56:54.820Z,23.70
2022-08-12T16:59:31.031Z,23.70
2022-08-12T17:02:31.231Z,23.60
2022-08-12T17:05:01.024Z,23.50
2022-08-12T17:07:43.326Z,23.60
2022-08-12T17:10:18.514Z,23.70
2022-08-12T17:13:09.592Z,23.80
2022-08-12T17:15:57.915Z,24.00
2022-08-12T17:18:43.053Z,24.10
2022-08-12T17:21:15.265Z,24.20
2022-08-12T17:23:53.455Z,24.40
2022-08-12T17:26:22.737Z,24.70
2022-08-12T17:28:59.006Z,25.00
2022-08-12T17:31:59.277Z,25.10
2022-08-12T17:34:38.474Z,25.20
2022-08-12T17:37:07.233Z,25.10
2022-08-12T17:40:12.800Z,25.10
2022-08-12T17:42:35.284Z,25.30
2022-08-12T17:45:17.727Z,25.50
2022-08-12T17:48:02.121Z,25.60
2022-08-12T17:50:36.668Z,25.70
2022-08-12T17:53:05.814Z,25.70
2022-08-12T17:55:44.344Z,25.80
2022-08-12T17:58:17.938Z,26.00
2022-08-12T18:00:50.390Z,26.00
2022-08-12T18:04:05.269Z,26.10
2022-08-12T18:06:14.712Z,26.10
2022-08-12T18:08:54.892Z,26.20
2022-08-12T18:12:05.504Z,26.30
2022-08-12T18:14:30.199Z,26.40
2022-08-12T18:17:01.705Z,26.40
2022-08-12T18:19:34.069Z,26.50
2022-08-12T18:22:22.055Z,26.40
2022-08-12T18:25:02.319Z,26.50
2022-08-12T18:27:45.701Z,26.50
2022-08-12T18:30:29.321Z,26.50
2022-08-12T18:33:04.599Z,26.60
2022-08-12T18:35:46.284Z,26.80
2022-08-12T18:38:17.545Z,26.90
2022-08-12T18:41:04.453Z,27.00
2022-08-12T18:43:38.994Z,27.00
2022-08-12T18:46:32.995Z,27.00
2022-08-12T18:49:17.117Z,27.10
2022-08-12T18:51:55.179Z,27.20
2022-08-12T18:54:25.563Z,27.40
2022-08-12T18:56:54.973Z,27.50
2022-08-12T19:00:01.303Z,27.70
2022-08-12T19:02:21.034Z,27.80
2022-08-12T19:04:53.550Z,27.90
2022-08-12T19:07:24.037Z,28.00
2022-08-12T19:09:58.317Z,28.10
2022-08-12T19:12:55.378Z,28.20
2022-08-12T19:15:30.043Z,28.30
2022-08-12T19:18:02.361Z,28.50
2022-08-12T19:20:32.934Z,28.60
2022-08-12T19:23:07.958Z,28.80
2022-08-12T19:25:59.374Z,28.90
2022-08-12T19:28:35.402Z,29.10
2022-08-12T19:31:56.565Z,29.30
2022-08-12T19:37:20.219Z,29.70
2022-08-12T19:40:08.886Z,29.80
2022-08-12T19:42:42.678Z,29.90
2022-08-12T19:45:15.841Z,30.00
2022-08-12T19:47:46.487Z,30.20
2022-08-12T19:50:20.020Z,30.50
2022-08-12T19:52:51.253Z,30.80
2022-08-12T19:55:23.266Z,30.90
2022-08-12T19:58:01.475Z,31.10
2022-08-12T20:00:30.683Z,31.40
2022-08-12T20:03:00.832Z,31.60
2022-08-12T20:06:04.595Z,31.80
2022-08-12T20:08:33.988Z,31.90
2022-08-12T20:12:12.294Z,32.10
2022-08-12T20:14:01.751Z,32.20
2022-08-12T20:16:57.450Z,32.50
2022-08-12T20:19:28.509Z,32.60
2022-08-12T20:22:23.333Z,32.70
2022-08-12T20:24:55.299Z,32.80
2022-08-12T20:27:29.330Z,33.00
2022-08-12T20:30:14.949Z,33.10
2022-08-12T20:32:53.856Z,33.30
2022-08-12T20:35:24.808Z,33.50
2022-08-12T20:38:07.280Z,33.70
2022-08-12T20:40:42.602Z,33.80
2022-08-12T20:43:24.010Z,34.00
2022-08-12T20:45:57.784Z,34.00
2022-08-12T20:48:28.677Z,34.10
2022-08-12T20:50:57.903Z,34.30
2022-08-12T20:53:54.033Z,34.40
2022-08-12T20:56:31.195Z,34.60
2022-08-12T20:59:01.072Z,34.70
2022-08-12T21:01:45.894Z,34.70
2022-08-12T21:04:33.591Z,34.80
2022-08-12T21:07:08.487Z,34.80
2022-08-12T21:09:41.755Z,34.80
2022-08-12T21:12:31.434Z,34.80
2022-08-12T21:15:23.464Z,34.70
2022-08-12T21:18:10.933Z,34.70
2022-08-12T21:20:44.440Z,34.70
2022-08-12T21:23:13.703Z,34.60
2022-08-12T21:25:45.065Z,34.60
2022-08-12T21:28:15.229Z,34.60
2022-08-12T21:34:31.409Z,34.50
2022-08-12T21:37:13.012Z,34.40
2022-08-12T21:39:53.311Z,34.40
2022-08-12T21:42:28.005Z,34.40
2022-08-12T21:45:47.442Z,34.40
2022-08-12T21:47:46.696Z,34.40
2022-08-12T21:50:21.231Z,34.30
2022-08-12T21:52:50.248Z,34.30
2022-08-12T21:55:20.254Z,34.40
2022-08-12T21:57:53.555Z,34.40
2022-08-12T22:00:32.405Z,34.30
2022-08-12T22:04:01.779Z,34.30
2022-08-12T22:06:30.937Z,34.30
2022-08-12T22:09:16.472Z,34.30
2022-08-12T22:11:56.964Z,34.30
2022-08-12T22:14:29.037Z,34.20
2022-08-12T22:17:01.324Z,34.10
2022-08-12T22:19:34.947Z,34.10
2022-08-12T22:22:05.059Z,34.10
2022-08-12T22:24:33.202Z,34.20
2022-08-12T22:27:08.270Z,34.10
2022-08-12T22:30:07.780Z,34.10
2022-08-12T22:32:44.682Z,34.10
2022-08-12T22:35:55.914Z,34.20
2022-08-12T22:38:20.663Z,34.10
2022-08-12T22:40:49.703Z,34.30
2022-08-12T22:43:36.540Z,34.40
2022-08-12T22:46:42.007Z,34.30
2022-08-12T22:49:26.155Z,34.30
2022-08-12T22:52:08.360Z,34.40
2022-08-12T22:54:37.768Z,34.50
2022-08-12T22:57:23.611Z,34.60
2022-08-12T23:00:23.526Z,34.80
2022-08-12T23:02:58.327Z,34.80
2022-08-12T23:05:57.291Z,34.90
2022-08-12T23:08:21.652Z,35.00
2022-08-12T23:10:50.157Z,35.10
2022-08-12T23:13:43.395Z,35.20
2022-08-12T23:16:28.633Z,35.40
2022-08-12T23:19:09.256Z,35.50
2022-08-12T23:22:06.714Z,35.60
2022-08-12T23:24:32.215Z,35.60
2022-08-12T23:27:20.908Z,35.70
2022-08-12T23:30:18.061Z,35.80
2022-08-12T23:32:37.610Z,35.90
2022-08-12T23:35:07.615Z,36.00
2022-08-12T23:37:47.796Z,36.10
2022-08-12T23:40:22.301Z,36.10
2022-08-12T23:42:53.935Z,36.30
2022-08-12T23:45:31.338Z,36.20
2022-08-12T23:48:00.012Z,36.30
2022-08-12T23:50:34.630Z,36.30
2022-08-12T23:53:06.663Z,36.40
2022-08-12T23:55:45.459Z,36.50
2022-08-12T23:58:21.166Z,36.60
